Time;durP1;ratioP1;P1;durP2;ratioP2;P2;SDS_P1;SDS_P2;PMS_P1;PMS_P2;Temp;Humidity;BMP_temperature;BMP_pressure;BME280_temperature;BME280_humidity;BME280_pressure;Samples;Min_cycle;Max_cycle;Signal;HPM_P1;HPM_P2
2021/08/21 00:01:13;;;;;;;24.23;10.93;;;;;;;13.25;83.77;94810.11;1583561;90;20979;-57
2021/08/21 00:03:40;;;;;;;33.25;14.20;;;;;;;13.23;83.76;94817.34;1614393;87;21070;-57
2021/08/21 00:06:07;;;;;;;28.77;12.75;;;;;;;13.17;83.64;94813.05;1583706;90;21043;-58
2021/08/21 00:08:33;;;;;;;23.05;12.63;;;;;;;13.10;83.57;94809.83;1583860;90;21039;-58
2021/08/21 00:11:02;;;;;;;31.27;13.72;;;;;;;13.06;84.01;94807.84;1583794;90;21010;-58
2021/08/21 00:13:29;;;;;;;30.52;12.45;;;;;;;13.08;84.07;94809.52;1617953;88;21034;-58
2021/08/21 00:15:56;;;;;;;23.77;12.40;;;;;;;13.07;84.03;94814.89;1614345;89;20962;-58
2021/08/21 00:18:24;;;;;;;41.95;14.07;;;;;;;13.01;83.96;94812.58;1614468;89;21530;-58
2021/08/21 00:20:51;;;;;;;30.40;12.55;;;;;;;12.91;84.30;94808.27;1606726;88;21066;-58
2021/08/21 00:23:19;;;;;;;24.63;10.70;;;;;;;12.87;84.39;94807.03;1604464;89;21162;-58
2021/08/21 00:25:45;;;;;;;25.02;11.28;;;;;;;12.86;84.56;94804.75;1604514;89;20983;-58
2021/08/21 00:28:12;;;;;;;22.00;11.33;;;;;;;12.89;84.50;94802.44;1604561;89;21024;-58
2021/08/21 00:30:39;;;;;;;25.65;11.35;;;;;;;12.94;84.52;94807.38;1604512;89;21102;-58
2021/08/21 00:33:07;;;;;;;24.45;11.57;;;;;;;12.99;84.24;94805.37;1604508;89;21031;-58
2021/08/21 00:35:33;;;;;;;28.02;10.50;;;;;;;13.03;83.91;94797.69;1604628;89;21140;-59
2021/08/21 00:38:00;;;;;;;15.78;9.00;;;;;;;13.04;83.70;94802.02;1611698;88;21042;-58
2021/08/21 00:40:27;;;;;;;19.52;8.83;;;;;;;13.05;83.58;94807.69;1604630;89;20983;-58
2021/08/21 00:42:55;;;;;;;15.20;9.35;;;;;;;13.02;83.78;94812.13;1579428;90;21498;-58
2021/08/21 00:45:21;;;;;;;16.30;9.03;;;;;;;12.96;83.67;94801.55;1579440;91;21050;-58
2021/08/21 00:47:49;;;;;;;15.63;10.05;;;;;;;12.89;83.62;94794.16;1579315;91;21165;-58
2021/08/21 00:50:15;;;;;;;19.80;9.65;;;;;;;12.85;83.78;94796.28;1579368;91;20962;-58
2021/08/21 00:52:42;;;;;;;21.37;10.18;;;;;;;12.83;83.76;94800.12;1579333;91;21492;-58
2021/08/21 00:55:10;;;;;;;21.80;10.48;;;;;;;12.79;83.73;94798.91;1579545;89;21049;-58
2021/08/21 00:57:36;;;;;;;17.57;9.93;;;;;;;12.75;83.97;94798.27;1589341;90;20984;-58
2021/08/21 01:00:05;;;;;;;16.65;10.18;;;;;;;12.74;84.23;94802.26;1577497;91;21908;-58
2021/08/21 01:02:32;;;;;;;16.85;8.85;;;;;;;12.74;84.32;94791.84;1577316;91;21092;-58
2021/08/21 01:04:59;;;;;;;19.35;10.18;;;;;;;12.77;84.40;94796.45;1577682;91;21091;-58
2021/08/21 01:07:34;;;;;;;19.10;10.30;;;;;;;12.75;83.91;94798.90;1563534;91;21080;-58
2021/08/21 01:10:09;;;;;;;14.68;8.80;;;;;;;12.72;83.73;94805.34;1589539;90;21440;-58
2021/08/21 01:12:40;;;;;;;14.47;9.40;;;;;;;12.70;83.80;94802.28;1604470;89;20967;-58
2021/08/21 01:15:08;;;;;;;16.02;9.58;;;;;;;12.66;84.05;94797.50;1604469;88;21004;-59
2021/08/21 01:17:36;;;;;;;11.68;8.85;;;;;;;12.64;83.88;94809.61;1604553;88;20995;-57
2021/08/21 01:20:06;;;;;;;11.78;8.28;;;;;;;12.60;83.82;94808.41;1607455;88;21003;-57
2021/08/21 01:22:36;;;;;;;12.47;7.97;;;;;;;12.56;83.98;94811.15;1614352;89;20994;-58
2021/08/21 01:25:12;;;;;;;15.85;9.00;;;;;;;12.48;84.23;94805.75;1613930;88;21152;-58
2021/08/21 01:27:39;;;;;;;15.93;8.85;;;;;;;12.40;84.22;94804.53;1614421;89;21066;-58
2021/08/21 01:30:16;;;;;;;17.20;9.60;;;;;;;12.35;84.51;94807.90;1613679;88;21499;-57
2021/08/21 01:32:45;;;;;;;24.45;10.50;;;;;;;12.28;84.78;94799.89;1614181;88;20998;-58
2021/08/21 01:35:18;;;;;;;11.68;7.92;;;;;;;12.27;84.96;94798.36;1614351;87;21026;-57
2021/08/21 01:37:45;;;;;;;19.15;9.30;;;;;;;12.26;84.71;94793.31;1614386;89;21233;-58
2021/08/21 01:40:14;;;;;;;14.58;8.90;;;;;;;12.16;84.86;94789.77;1611803;89;20987;-58
2021/08/21 01:42:42;;;;;;;22.27;10.45;;;;;;;12.13;84.91;94797.58;1614436;89;21070;-58
2021/08/21 01:45:13;;;;;;;22.55;11.10;;;;;;;12.10;84.99;94798.47;1614650;89;21038;-58
2021/08/21 01:47:42;;;;;;;17.60;10.03;;;;;;;12.07;85.28;94796.63;1614475;89;21025;-58
2021/08/21 01:50:12;;;;;;;17.10;8.58;;;;;;;12.08;85.40;94794.65;1614337;89;21230;-58
2021/08/21 01:52:38;;;;;;;19.70;9.10;;;;;;;12.11;85.50;94794.48;1614302;89;21077;-58
2021/08/21 01:55:08;;;;;;;20.82;9.88;;;;;;;12.13;85.57;94797.58;1612845;88;21026;-58
2021/08/21 01:57:41;;;;;;;11.43;8.53;;;;;;;12.15;85.60;94789.61;1614354;89;21055;-58
2021/08/21 02:00:28;;;;;;;15.93;9.58;;;;;;;12.16;85.29;94786.23;1598460;89;21067;-58
2021/08/21 02:02:55;;;;;;;20.75;9.23;;;;;;;12.13;84.95;94778.88;1609246;88;21183;-58
2021/08/21 02:05:24;;;;;;;18.75;9.18;;;;;;;12.13;85.09;94785.17;1614841;88;21019;-58
2021/08/21 02:07:52;;;;;;;12.68;8.98;;;;;;;12.18;85.04;94780.42;1614330;89;21116;-58
2021/08/21 02:10:20;;;;;;;19.95;8.65;;;;;;;12.23;84.74;94782.57;1614338;89;21553;-60
2021/08/21 02:12:48;;;;;;;16.73;9.65;;;;;;;12.21;84.66;94778.13;1614471;88;21085;-58
2021/08/21 02:15:17;;;;;;;13.25;8.40;;;;;;;12.26;84.96;94787.17;1614626;89;21159;-58
2021/08/21 02:17:50;;;;;;;11.10;8.08;;;;;;;12.28;84.68;94781.22;1614417;88;21034;-57
2021/08/21 02:20:18;;;;;;;12.82;7.83;;;;;;;12.26;84.42;94776.77;1609731;88;21119;-58
2021/08/21 02:22:47;;;;;;;15.75;7.47;;;;;;;12.25;84.23;94786.27;1614550;88;21474;-59
2021/08/21 02:25:16;;;;;;;12.88;7.90;;;;;;;12.22;84.19;94785.17;1583727;90;21039;-58
2021/08/21 02:27:55;;;;;;;10.75;8.30;;;;;;;12.20;84.30;94782.11;1583720;90;20995;-58
2021/08/21 02:30:13;;;;;;;12.47;8.60;;;;;;;12.22;84.30;94782.42;1583378;90;20998;-58
2021/08/21 02:32:40;;;;;;;10.48;8.48;;;;;;;12.24;84.16;94778.59;1583767;90;21050;-58
2021/08/21 02:35:08;;;;;;;13.72;7.08;;;;;;;12.23;83.92;94783.95;1583859;90;21482;-59
2021/08/21 02:37:35;;;;;;;13.68;8.28;;;;;;;12.21;83.64;94786.41;1583904;90;21006;-59
2021/08/21 02:40:03;;;;;;;17.45;9.88;;;;;;;12.20;83.71;94786.25;1583755;90;21155;-59
2021/08/21 02:42:31;;;;;;;17.80;9.35;;;;;;;12.20;83.76;94788.22;1584004;90;21038;-59
2021/08/21 02:44:58;;;;;;;21.27;9.15;;;;;;;12.18;84.07;94790.67;1583976;90;21569;-58
2021/08/21 02:47:25;;;;;;;20.92;8.63;;;;;;;12.19;83.99;94788.85;1583710;90;21051;-58
2021/08/21 02:49:51;;;;;;;14.45;8.15;;;;;;;12.21;83.50;94784.24;1583857;90;21071;-59
2021/08/21 02:52:18;;;;;;;12.93;8.48;;;;;;;12.16;83.27;94781.50;1583661;90;21160;-58
2021/08/21 02:54:45;;;;;;;12.25;8.63;;;;;;;12.12;83.39;94780.85;1583660;90;21011;-58
2021/08/21 02:57:13;;;;;;;11.78;7.85;;;;;;;12.13;83.37;94779.66;1583948;90;21019;-58
2021/08/21 02:59:40;;;;;;;18.20;8.15;;;;;;;12.14;83.07;94785.33;1583780;90;21054;-58
2021/08/21 03:02:07;;;;;;;12.90;8.33;;;;;;;12.12;82.88;94783.61;1583848;90;21482;-58
2021/08/21 03:04:34;;;;;;;11.88;7.58;;;;;;;12.07;82.90;94789.73;1614413;89;21781;-57
2021/08/21 03:07:03;;;;;;;14.35;8.60;;;;;;;12.05;83.11;94785.28;1583625;90;21524;-57
2021/08/21 03:09:51;;;;;;;13.50;8.73;;;;;;;11.97;83.19;94782.67;1614433;89;21034;-57
2021/08/21 03:12:20;;;;;;;15.28;8.73;;;;;;;11.93;83.28;94784.78;1583698;90;21094;-57
2021/08/21 03:14:51;;;;;;;21.77;8.15;;;;;;;11.88;83.33;94785.38;1614314;89;21038;-58
2021/08/21 03:17:18;;;;;;;23.77;9.15;;;;;;;11.79;83.47;94789.49;1557915;90;21180;-58
2021/08/21 03:19:45;;;;;;;28.75;10.30;;;;;;;11.74;83.65;94784.55;1614602;89;21431;-57
2021/08/21 03:22:12;;;;;;;37.58;12.98;;;;;;;11.71;84.02;94790.97;1583666;90;21083;-57
2021/08/21 03:24:41;;;;;;;41.00;12.35;;;;;;;11.69;84.13;94789.91;1583723;90;21038;-58
2021/08/21 03:27:08;;;;;;;29.75;9.45;;;;;;;11.67;84.40;94800.00;1584061;90;21117;-58
2021/08/21 03:29:37;;;;;;;27.98;9.30;;;;;;;11.67;84.29;94794.48;1614490;89;21171;-58
2021/08/21 03:32:06;;;;;;;21.00;9.43;;;;;;;11.67;84.33;94791.73;1614358;88;21619;-58
2021/08/21 03:34:34;;;;;;;22.27;10.35;;;;;;;11.66;84.57;94790.20;1557611;90;20993;-59
2021/08/21 03:37:03;;;;;;;29.10;10.45;;;;;;;11.69;84.58;94786.53;1614485;89;21058;-58
2021/08/21 03:39:30;;;;;;;30.10;10.58;;;;;;;11.75;84.30;94794.98;1583768;90;21058;-58
2021/08/21 03:41:58;;;;;;;26.80;9.50;;;;;;;11.73;84.06;94792.66;1614377;88;21142;-58
2021/08/21 03:44:25;;;;;;;19.05;9.05;;;;;;;11.68;84.09;94791.13;1583730;90;21473;-58
2021/08/21 03:46:53;;;;;;;23.65;9.33;;;;;;;11.64;84.39;94804.26;1614501;88;21035;-58
2021/08/21 03:49:20;;;;;;;21.93;9.95;;;;;;;11.63;84.66;94799.97;1583678;90;21556;-58
2021/08/21 03:51:47;;;;;;;27.45;10.43;;;;;;;11.65;84.87;94805.79;1614535;89;20998;-58
2021/08/21 03:54:15;;;;;;;16.90;8.93;;;;;;;11.66;84.83;94799.84;1583706;90;21179;-59
2021/08/21 03:56:42;;;;;;;17.10;9.23;;;;;;;11.67;84.88;94802.75;1583586;90;21522;-59
2021/08/21 03:59:09;;;;;;;12.80;8.55;;;;;;;11.68;84.56;94802.16;1614383;88;21124;-59
2021/08/21 04:01:37;;;;;;;14.07;8.93;;;;;;;11.71;84.38;94809.52;1557502;90;20994;-58
2021/08/21 04:04:06;;;;;;;22.60;9.45;;;;;;;11.72;84.23;94809.05;1614372;88;21459;-59
2021/08/21 04:06:38;;;;;;;24.82;9.83;;;;;;;11.74;84.33;94816.25;1614519;89;21530;-58
2021/08/21 04:09:06;;;;;;;27.45;9.75;;;;;;;11.72;84.16;94804.91;1614365;89;20982;-58
2021/08/21 04:11:34;;;;;;;21.97;8.98;;;;;;;11.70;84.43;94807.36;1614284;88;21098;-58
2021/08/21 04:14:07;;;;;;;13.85;8.75;;;;;;;11.76;84.55;94804.19;1583903;90;21026;-58
2021/08/21 04:16:34;;;;;;;12.00;8.55;;;;;;;11.81;84.42;94813.23;1614469;89;20978;-59
2021/08/21 04:19:01;;;;;;;22.02;9.13;;;;;;;11.79;84.53;94807.41;1583690;90;21172;-58
2021/08/21 04:21:35;;;;;;;22.93;10.05;;;;;;;11.83;84.73;94811.39;1586202;90;21499;-58
2021/08/21 04:23:59;;;;;;;19.32;9.35;;;;;;;11.91;84.71;94805.77;1576997;91;21095;-59
2021/08/21 04:26:26;;;;;;;13.28;8.03;;;;;;;11.99;84.59;94810.55;1577678;91;21506;-59
2021/08/21 04:28:54;;;;;;;19.27;8.83;;;;;;;12.09;84.40;94814.10;1577569;91;21478;-58
2021/08/21 04:31:21;;;;;;;18.70;9.80;;;;;;;12.19;84.20;94823.33;1577414;91;21038;-59
2021/08/21 04:33:47;;;;;;;20.57;9.75;;;;;;;12.23;84.05;94820.44;1577313;91;21006;-59
2021/08/21 04:36:14;;;;;;;24.40;9.58;;;;;;;12.27;84.09;94820.43;1577645;91;21491;-59
2021/08/21 04:38:41;;;;;;;16.42;8.85;;;;;;;12.36;83.71;94825.20;1577382;91;21082;-58
2021/08/21 04:41:10;;;;;;;17.50;8.28;;;;;;;12.42;83.47;94830.30;1577453;91;21069;-59
2021/08/21 04:43:38;;;;;;;19.23;8.70;;;;;;;12.46;83.43;94822.00;1554942;91;21250;-59
2021/08/21 04:46:05;;;;;;;15.98;8.78;;;;;;;12.53;83.44;94821.73;1554654;91;21498;-59
2021/08/21 04:48:34;;;;;;;14.63;9.53;;;;;;;12.61;83.45;94820.98;1577523;91;21535;-59
2021/08/21 04:51:01;;;;;;;12.47;8.50;;;;;;;12.70;83.11;94821.60;1577390;91;21066;-59
2021/08/21 04:53:28;;;;;;;11.75;7.87;;;;;;;12.77;82.97;94819.91;1577333;91;20983;-59
2021/08/21 04:55:55;;;;;;;15.72;7.53;;;;;;;12.86;82.65;94819.93;1577351;91;21205;-59
2021/08/21 04:58:24;;;;;;;18.32;8.85;;;;;;;12.94;82.41;94825.32;1577352;91;21043;-59
2021/08/21 05:00:51;;;;;;;12.07;8.00;;;;;;;13.02;82.15;94820.41;1577376;91;21519;-59
2021/08/21 05:03:19;;;;;;;11.00;7.87;;;;;;;13.07;81.96;94820.42;1576982;91;21061;-59
2021/08/21 05:05:47;;;;;;;12.90;7.78;;;;;;;13.08;81.82;94821.95;1577333;91;21221;-59
2021/08/21 05:08:15;;;;;;;13.05;8.35;;;;;;;13.07;81.89;94819.79;1577334;91;21129;-59
2021/08/21 05:10:46;;;;;;;17.13;8.93;;;;;;;13.11;81.85;94826.55;1577577;91;20987;-59
2021/08/21 05:13:14;;;;;;;14.95;8.05;;;;;;;13.20;81.81;94816.86;1577346;91;21007;-58
2021/08/21 05:15:40;;;;;;;12.23;9.08;;;;;;;13.28;81.74;94811.94;1577408;91;21551;-58
2021/08/21 05:18:11;;;;;;;16.77;8.40;;;;;;;13.36;81.66;94820.69;1554925;91;21105;-60
2021/08/21 05:20:50;;;;;;;11.70;7.90;;;;;;;13.45;81.36;94816.54;1577025;91;23314;-60
2021/08/21 05:23:16;;;;;;;14.98;8.95;;;;;;;13.51;81.23;94816.84;1543230;93;21143;-61
2021/08/21 05:25:47;;;;;;;20.27;9.75;;;;;;;13.59;81.02;94810.37;1564110;91;21049;-60
2021/08/21 05:28:16;;;;;;;15.68;10.35;;;;;;;13.70;80.98;94824.45;1539011;91;21500;-60
2021/08/21 05:30:43;;;;;;;25.45;12.63;;;;;;;13.79;80.76;94823.81;1515954;91;21247;-59
2021/08/21 05:33:14;;;;;;;15.93;7.72;;;;;;;13.93;80.57;94821.00;1564080;90;21173;-60
2021/08/21 05:35:42;;;;;;;21.05;7.83;;;;;;;14.05;80.04;94821.42;1538762;93;21068;-59
2021/08/21 05:38:09;;;;;;;24.85;10.72;;;;;;;14.17;79.26;94821.23;1562642;91;21207;-59
2021/08/21 05:40:36;;;;;;;13.62;7.47;;;;;;;14.30;78.76;94823.79;1564151;90;21041;-59
2021/08/21 05:43:04;;;;;;;13.30;8.10;;;;;;;14.38;78.30;94820.84;1538904;92;21025;-59
2021/08/21 05:45:32;;;;;;;16.82;8.25;;;;;;;14.44;78.04;94821.87;1564066;90;21046;-60
2021/08/21 05:47:59;;;;;;;21.02;9.08;;;;;;;14.52;77.87;94813.38;1539041;92;21577;-60
2021/08/21 05:50:26;;;;;;;17.02;7.80;;;;;;;14.63;77.70;94827.45;1564259;91;21049;-60
2021/08/21 05:52:54;;;;;;;16.20;7.50;;;;;;;14.77;77.34;94820.43;1539060;91;21013;-61
2021/08/21 05:55:22;;;;;;;13.08;7.08;;;;;;;14.91;76.59;94816.34;1564156;91;21544;-58
2021/08/21 05:57:52;;;;;;;12.85;8.08;;;;;;;14.96;75.99;94816.32;1538192;93;21213;-60
2021/08/21 06:00:19;;;;;;;21.05;7.55;;;;;;;14.99;75.95;94813.34;1562754;91;21134;-59
2021/08/21 06:02:46;;;;;;;17.20;8.28;;;;;;;15.07;75.52;94815.92;1564168;90;20997;-59
2021/08/21 06:05:13;;;;;;;23.30;8.28;;;;;;;15.18;75.22;94811.20;1539080;93;21048;-59
2021/08/21 06:07:41;;;;;;;19.70;7.42;;;;;;;15.29;74.89;94812.21;1564132;90;21085;-59
2021/08/21 06:10:11;;;;;;;16.55;8.20;;;;;;;15.39;74.55;94808.10;1538769;91;21491;-59
2021/08/21 06:12:38;;;;;;;16.70;7.08;;;;;;;15.47;74.29;94809.27;1539024;91;21496;-59
2021/08/21 06:15:06;;;;;;;22.10;8.30;;;;;;;15.56;73.84;94808.42;1539147;92;21022;-60
2021/08/21 06:17:34;;;;;;;29.65;8.20;;;;;;;15.57;73.53;94807.17;1539060;91;21058;-59
2021/08/21 06:20:03;;;;;;;12.00;6.62;;;;;;;15.61;73.54;94811.30;1539286;93;21548;-60
2021/08/21 06:22:30;;;;;;;22.25;7.35;;;;;;;15.68;73.16;94806.75;1554108;90;21234;-59
2021/08/21 06:24:57;;;;;;;14.58;6.97;;;;;;;15.77;72.95;94808.02;1589436;90;21583;-59
2021/08/21 06:27:25;;;;;;;18.27;7.10;;;;;;;15.92;72.73;94808.78;1577494;91;21063;-59
2021/08/21 06:29:51;;;;;;;23.70;7.10;;;;;;;16.03;72.22;94799.87;1577391;91;21176;-59
2021/08/21 06:32:18;;;;;;;19.73;7.47;;;;;;;16.11;71.91;94797.61;1577608;91;21474;-59
2021/08/21 06:34:45;;;;;;;24.10;7.45;;;;;;;16.21;71.79;94799.04;1554995;91;21420;-58
2021/08/21 06:37:12;;;;;;;25.02;8.38;;;;;;;16.36;71.76;94803.97;1577483;91;21055;-59
2021/08/21 06:39:39;;;;;;;19.55;6.67;;;;;;;16.52;71.29;94802.06;1577662;90;20994;-59
2021/08/21 06:42:07;;;;;;;15.45;6.60;;;;;;;16.64;70.33;94800.34;1577430;91;21043;-60
2021/08/21 06:44:34;;;;;;;17.95;7.45;;;;;;;16.73;70.11;94804.36;1577460;91;21011;-60
2021/08/21 06:47:01;;;;;;;18.65;7.65;;;;;;;16.80;69.79;94799.02;1577411;91;21354;-60
2021/08/21 06:49:28;;;;;;;18.57;7.47;;;;;;;16.87;70.02;94804.92;1577361;91;21472;-61
2021/08/21 06:51:57;;;;;;;21.35;10.25;;;;;;;16.99;69.76;94805.83;1577385;91;21172;-60
2021/08/21 06:54:23;;;;;;;19.80;9.53;;;;;;;17.12;69.56;94796.52;1577654;91;21018;-59
2021/08/21 06:56:50;;;;;;;30.95;9.60;;;;;;;17.28;69.39;94796.70;1577360;91;21066;-59
2021/08/21 06:59:17;;;;;;;17.95;10.80;;;;;;;17.42;68.57;94800.69;1577408;91;21166;-59
2021/08/21 07:01:44;;;;;;;25.10;10.15;;;;;;;17.52;68.12;94800.66;1577439;91;20999;-61
2021/08/21 07:04:11;;;;;;;20.62;9.08;;;;;;;17.60;68.14;94804.52;1577405;91;21031;-60
2021/08/21 07:06:38;;;;;;;20.57;8.58;;;;;;;17.74;67.96;94800.25;1577575;91;21086;-59
2021/08/21 07:09:05;;;;;;;24.35;11.03;;;;;;;17.87;67.41;94794.29;1577505;91;21492;-60
2021/08/21 07:11:34;;;;;;;13.15;7.47;;;;;;;18.00;67.35;94798.84;1577316;91;21015;-61
2021/08/21 07:14:00;;;;;;;13.25;7.87;;;;;;;18.13;66.81;94803.48;1577324;91;21549;-60
2021/08/21 07:16:27;;;;;;;11.88;7.05;;;;;;;18.23;66.47;94797.11;1577433;91;21503;-59
2021/08/21 07:18:56;;;;;;;12.13;7.50;;;;;;;18.33;65.70;94797.88;1577298;91;21003;-60
2021/08/21 07:21:23;;;;;;;11.43;6.62;;;;;;;18.41;65.49;94801.72;1577640;91;21494;-59
2021/08/21 07:23:51;;;;;;;15.98;7.83;;;;;;;18.50;65.46;94801.52;1583844;89;21259;-59
2021/08/21 07:26:17;;;;;;;9.23;6.60;;;;;;;18.60;65.71;94800.69;1614349;89;20975;-60
2021/08/21 07:28:44;;;;;;;17.23;9.30;;;;;;;18.69;65.51;94798.48;1557505;90;21039;-60
2021/08/21 07:31:11;;;;;;;11.20;8.13;;;;;;;18.80;65.21;94799.93;1583704;90;21101;-58
2021/08/21 07:33:38;;;;;;;15.35;9.70;;;;;;;18.88;64.69;94797.44;1583771;90;21096;-61
2021/08/21 07:36:06;;;;;;;18.12;9.03;;;;;;;18.95;64.39;94801.13;1583719;90;21136;-60
2021/08/21 07:38:32;;;;;;;12.07;8.55;;;;;;;19.00;64.24;94799.77;1583681;90;21103;-59
2021/08/21 07:41:01;;;;;;;25.52;8.88;;;;;;;19.08;64.23;94798.05;1583800;90;21097;-59
2021/08/21 07:43:28;;;;;;;14.78;7.65;;;;;;;19.21;64.22;94792.79;1583678;90;21039;-60
2021/08/21 07:45:56;;;;;;;11.68;7.90;;;;;;;19.36;64.19;94789.81;1614540;89;21083;-60
2021/08/21 07:48:22;;;;;;;13.70;8.03;;;;;;;19.54;63.85;94792.90;1583624;90;21819;-60
2021/08/21 07:50:50;;;;;;;11.05;7.35;;;;;;;19.74;63.33;94799.66;1583819;90;21102;-60
2021/08/21 07:53:17;;;;;;;20.30;8.73;;;;;;;19.89;62.83;94794.61;1583672;90;21483;-59
2021/08/21 07:55:44;;;;;;;15.18;7.85;;;;;;;20.04;62.24;94799.36;1614313;89;20990;-59
2021/08/21 07:58:11;;;;;;;8.93;6.37;;;;;;;20.19;62.32;94792.89;1583753;90;21112;-58
2021/08/21 08:00:38;;;;;;;17.87;7.53;;;;;;;20.37;62.38;94793.13;1583628;90;21035;-58
2021/08/21 08:03:04;;;;;;;10.13;6.83;;;;;;;20.54;61.35;94795.92;1583630;90;21007;-61
2021/08/21 08:05:31;;;;;;;11.20;6.28;;;;;;;20.66;60.96;94798.81;1583791;90;21521;-60
2021/08/21 08:07:58;;;;;;;18.12;6.97;;;;;;;20.77;60.94;94799.55;1614249;89;21478;-60
2021/08/21 08:10:26;;;;;;;17.77;8.35;;;;;;;20.90;60.57;94792.06;1614357;88;21019;-61
2021/08/21 08:12:54;;;;;;;12.15;6.30;;;;;;;21.05;60.73;94791.11;1614283;88;20975;-60
2021/08/21 08:15:23;;;;;;;10.05;5.87;;;;;;;21.21;60.98;94798.06;1613540;88;21510;-61
2021/08/21 08:17:50;;;;;;;9.18;6.17;;;;;;;21.36;60.29;94800.53;1583602;90;21077;-59
2021/08/21 08:20:16;;;;;;;8.00;5.53;;;;;;;21.48;59.72;94798.56;1583740;90;21503;-61
2021/08/21 08:22:43;;;;;;;10.70;5.90;;;;;;;21.58;59.23;94797.63;1583600;90;21047;-63
2021/08/21 08:25:10;;;;;;;12.18;6.25;;;;;;;21.71;59.02;94796.45;1583733;90;21208;-59
2021/08/21 08:27:37;;;;;;;24.35;7.12;;;;;;;21.86;58.33;94795.47;1583538;90;21035;-60
2021/08/21 08:30:06;;;;;;;7.50;5.10;;;;;;;22.02;57.43;94789.00;1583682;90;21644;-59
2021/08/21 08:32:32;;;;;;;12.60;5.45;;;;;;;22.17;55.52;94789.52;1583647;90;21177;-63
2021/08/21 08:34:59;;;;;;;9.53;5.58;;;;;;;22.32;55.52;94785.67;1577772;90;21158;-61
2021/08/21 08:37:27;;;;;;;9.48;5.50;;;;;;;22.46;54.56;94788.78;1583597;90;21003;-60
2021/08/21 08:39:54;;;;;;;8.65;4.95;;;;;;;22.60;54.31;94788.27;1614123;88;20970;-60
2021/08/21 08:42:21;;;;;;;8.50;5.35;;;;;;;22.72;54.22;94790.47;1583757;90;21021;-60
2021/08/21 08:44:50;;;;;;;7.28;5.55;;;;;;;22.88;53.52;94788.11;1583506;90;21091;-61
2021/08/21 08:47:18;;;;;;;8.48;5.12;;;;;;;23.01;53.12;94784.68;1614340;88;21502;-62
2021/08/21 08:49:48;;;;;;;15.38;5.25;;;;;;;23.13;52.90;94785.45;1582819;89;39103;-60
2021/08/21 08:52:16;;;;;;;7.50;5.20;;;;;;;23.37;52.57;94792.44;1583436;90;21018;-59
2021/08/21 08:54:43;;;;;;;7.20;4.58;;;;;;;23.64;51.82;94787.13;1583608;90;21046;-60
2021/08/21 08:57:25;;;;;;;9.33;5.03;;;;;;;23.89;49.96;94784.37;1583802;90;21053;-60
2021/08/21 08:59:52;;;;;;;9.40;4.58;;;;;;;24.09;49.43;94781.77;1594425;88;21081;-61
2021/08/21 09:02:36;;;;;;;5.50;4.50;;;;;;;24.29;48.42;94777.62;1614274;89;21168;-61
2021/08/21 09:05:07;;;;;;;6.97;4.35;;;;;;;24.46;47.64;94790.13;1611836;88;21054;-60
2021/08/21 09:07:52;;;;;;;8.60;3.55;;;;;;;24.64;47.46;94788.57;1614246;89;21081;-60
2021/08/21 09:10:24;;;;;;;5.33;3.92;;;;;;;24.84;45.05;94782.33;1614252;88;20999;-60
2021/08/21 09:13:07;;;;;;;6.33;4.08;;;;;;;25.07;44.13;94787.65;1614389;89;21540;-60
2021/08/21 09:15:38;;;;;;;6.80;3.70;;;;;;;25.21;42.46;94786.39;1614395;88;21932;-62
2021/08/21 09:18:15;;;;;;;4.83;3.60;;;;;;;25.28;43.50;94785.77;1614256;89;21006;-60
2021/08/21 09:20:53;;;;;;;3.42;2.90;;;;;;;25.41;42.61;94781.51;1614337;89;21525;-60
2021/08/21 09:23:39;;;;;;;7.80;3.90;;;;;;;25.51;41.30;94785.41;1614277;88;21042;-62
2021/08/21 09:26:36;;;;;;;6.97;4.35;;;;;;;25.63;42.75;94786.70;1618546;87;21043;-60
2021/08/21 09:29:04;;;;;;;8.80;4.25;;;;;;;25.75;43.19;94774.64;1618116;88;21439;-60
2021/08/21 09:31:33;;;;;;;7.00;4.33;;;;;;;25.69;42.52;94780.29;1614217;88;21039;-59
2021/08/21 09:34:06;;;;;;;5.90;4.00;;;;;;;25.56;43.23;94785.30;1597920;89;21135;-60
2021/08/21 09:36:41;;;;;;;6.45;4.15;;;;;;;25.47;42.96;94789.22;1614173;88;21090;-60
2021/08/21 09:39:10;;;;;;;7.20;4.92;;;;;;;25.30;42.64;94790.94;1614370;88;21104;-59
2021/08/21 09:42:01;;;;;;;10.93;4.45;;;;;;;25.14;44.00;94789.17;1614178;88;21165;-59
2021/08/21 09:44:42;;;;;;;5.87;4.12;;;;;;;25.03;44.99;94790.81;1614231;89;21479;-59
2021/08/21 09:47:29;;;;;;;4.95;3.80;;;;;;;25.04;44.59;94792.95;1614347;88;21047;-60
2021/08/21 09:50:18;;;;;;;5.55;3.90;;;;;;;25.04;44.44;94798.59;1613625;88;21022;-59
2021/08/21 09:52:46;;;;;;;6.70;3.67;;;;;;;25.19;43.93;94801.03;1614281;89;21006;-60
2021/08/21 09:55:16;;;;;;;6.62;3.80;;;;;;;25.38;42.98;94800.91;1614142;88;21179;-59
2021/08/21 09:57:43;;;;;;;9.60;4.40;;;;;;;25.47;43.33;94804.72;1614283;88;21475;-60
2021/08/21 10:00:11;;;;;;;5.85;4.20;;;;;;;25.49;43.29;94810.56;1598115;89;21221;-58
2021/08/21 10:02:44;;;;;;;3.98;3.55;;;;;;;25.63;43.44;94809.25;1614403;88;21042;-61
2021/08/21 10:05:11;;;;;;;7.53;4.10;;;;;;;25.78;43.75;94812.25;1598284;89;21537;-59
2021/08/21 10:07:42;;;;;;;5.05;3.72;;;;;;;25.84;43.45;94805.86;1614211;88;21371;-59
2021/08/21 10:10:11;;;;;;;5.53;3.98;;;;;;;25.87;42.57;94810.42;1597237;88;20994;-59
2021/08/21 10:12:44;;;;;;;4.45;3.62;;;;;;;25.84;43.09;94810.08;1614426;88;21078;-60
2021/08/21 10:15:13;;;;;;;5.53;3.80;;;;;;;25.79;43.13;94812.34;1614648;88;21039;-60
2021/08/21 10:17:43;;;;;;;8.68;3.85;;;;;;;25.67;42.59;94818.87;1614193;88;21155;-59
2021/08/21 10:20:12;;;;;;;7.15;3.62;;;;;;;25.86;42.69;94814.55;1614445;87;21102;-59
2021/08/21 10:22:39;;;;;;;8.30;3.87;;;;;;;26.26;42.79;94814.65;1613316;88;20978;-59
2021/08/21 10:25:07;;;;;;;6.10;4.08;;;;;;;26.56;42.15;94812.17;1604434;89;21499;-60
2021/08/21 10:27:41;;;;;;;6.40;4.47;;;;;;;26.68;41.12;94807.75;1579296;91;21492;-60
2021/08/21 10:30:25;;;;;;;5.87;4.40;;;;;;;26.59;40.60;94813.89;1566957;91;21454;-61
2021/08/21 10:33:01;;;;;;;14.07;4.80;;;;;;;26.39;40.96;94808.97;1563308;91;21214;-59
2021/08/21 10:35:55;;;;;;;7.97;4.55;;;;;;;26.17;40.78;94812.95;1563453;91;21529;-59
2021/08/21 10:38:37;;;;;;;5.70;3.60;;;;;;;25.96;41.92;94807.25;1589305;90;21540;-59
2021/08/21 10:41:15;;;;;;;7.62;4.22;;;;;;;25.97;42.13;94808.76;1563571;90;21455;-60
2021/08/21 10:43:54;;;;;;;13.62;5.53;;;;;;;26.44;41.31;94805.25;1605013;88;21071;-59
2021/08/21 10:46:33;;;;;;;7.72;4.03;;;;;;;26.71;40.17;94809.47;1604540;89;21169;-59
2021/08/21 10:49:05;;;;;;;8.05;4.78;;;;;;;26.99;40.00;94805.30;1570553;90;21053;-60
2021/08/21 10:51:35;;;;;;;;;;;;;;;27.50;39.70;94807.66;1565739;91;21096;-59
2021/08/21 10:54:26;;;;;;;6.95;4.37;;;;;;;28.24;38.67;94802.28;1567381;90;20353;-59
2021/08/21 10:56:54;;;;;;;10.30;4.70;;;;;;;28.99;38.05;94798.94;1579793;91;21046;-61
2021/08/21 10:59:43;;;;;;;5.33;4.10;;;;;;;29.85;35.61;94800.56;1563116;91;21245;-60
2021/08/21 11:02:25;;;;;;;10.35;4.17;;;;;;;30.48;35.10;94807.02;1589184;89;21091;-59
2021/08/21 11:04:53;;;;;;;9.03;4.17;;;;;;;31.12;34.55;94809.19;1571901;89;21068;-58
2021/08/21 11:07:41;;;;;;;5.80;4.33;;;;;;;31.73;34.02;94810.81;1554551;91;21210;-60
2021/08/21 11:10:30;;;;;;;5.87;4.42;;;;;;;32.31;30.89;94807.23;1589324;90;20995;-60
2021/08/21 11:12:56;;;;;;;5.47;4.37;;;;;;;32.19;31.32;94811.94;1589499;90;21119;-59
2021/08/21 11:15:26;;;;;;;6.35;4.03;;;;;;;31.72;31.38;94825.73;1589685;89;21563;-59
2021/08/21 11:17:52;;;;;;;6.50;4.87;;;;;;;31.00;32.89;94818.06;1591882;89;21065;-59
2021/08/21 11:20:30;;;;;;;7.78;5.72;;;;;;;30.37;34.19;94816.73;1604688;88;21071;-59
2021/08/21 11:23:12;;;;;;;11.65;5.60;;;;;;;29.83;34.51;94811.73;1605433;88;21600;-57
2021/08/21 11:25:41;;;;;;;5.67;4.65;;;;;;;29.53;36.06;94811.11;1617180;88;21225;-59
2021/08/21 11:28:20;;;;;;;5.58;4.10;;;;;;;29.13;36.30;94816.53;1617085;88;20984;-59
2021/08/21 11:31:17;;;;;;;6.37;4.40;;;;;;;28.65;36.66;94814.11;1617086;88;21031;-59
2021/08/21 11:33:43;;;;;;;7.58;4.87;;;;;;;28.20;37.46;94820.29;1617109;87;21141;-59
2021/08/21 11:36:10;;;;;;;6.58;4.80;;;;;;;27.54;38.59;94813.72;1617120;87;21035;-61
2021/08/21 11:38:40;;;;;;;6.60;4.97;;;;;;;27.01;39.28;94818.87;1616985;87;21152;-59